createdAt,value
2023-01-13T00:01:25.673Z,13.20
2023-01-13T00:03:52.327Z,15.43
2023-01-13T00:06:21.784Z,14.75
2023-01-13T00:08:49.316Z,19.30
2023-01-13T00:11:15.980Z,15.70
2023-01-13T00:13:42.643Z,12.02
2023-01-13T00:16:12.829Z,10.18
2023-01-13T00:18:39.294Z,16.77
2023-01-13T00:21:09.875Z,17.85
2023-01-13T00:23:36.285Z,20.15
2023-01-13T00:26:05.454Z,14.90
2023-01-13T00:28:32.204Z,13.55
2023-01-13T00:31:09.836Z,17.85
2023-01-13T00:33:37.130Z,20.00
2023-01-13T00:36:05.265Z,12.63
2023-01-13T00:38:33.609Z,18.70
2023-01-13T00:41:05.775Z,14.70
2023-01-13T00:43:33.781Z,17.17
2023-01-13T00:46:00.471Z,18.65
2023-01-13T00:48:28.117Z,17.38
2023-01-13T00:51:00.040Z,16.58
2023-01-13T00:53:27.851Z,20.55
2023-01-13T00:56:00.545Z,12.90
2023-01-13T00:58:27.235Z,15.07
2023-01-13T01:00:53.795Z,20.42
2023-01-13T01:03:20.204Z,13.48
2023-01-13T01:05:46.620Z,17.67
2023-01-13T01:08:13.029Z,18.25
2023-01-13T01:10:39.433Z,18.85
2023-01-13T01:13:05.849Z,17.67
2023-01-13T01:15:32.283Z,18.00
2023-01-13T01:17:58.659Z,16.65
2023-01-13T01:20:25.062Z,21.35
2023-01-13T01:22:51.451Z,23.63
2023-01-13T01:25:17.889Z,22.00
2023-01-13T01:27:44.268Z,21.40
2023-01-13T01:30:11.304Z,14.30
2023-01-13T01:32:37.675Z,18.83
2023-01-13T01:35:04.344Z,13.55
2023-01-13T01:37:30.732Z,16.63
2023-01-13T01:39:57.118Z,19.88
2023-01-13T01:42:23.543Z,21.98
2023-01-13T01:44:58.806Z,20.95
2023-01-13T01:47:27.444Z,20.73
2023-01-13T01:49:55.665Z,14.38
2023-01-13T01:52:37.229Z,18.05
2023-01-13T01:55:10.509Z,14.43
2023-01-13T01:57:47.635Z,18.38
2023-01-13T02:00:14.358Z,14.68
2023-01-13T02:02:43.849Z,17.67
2023-01-13T02:05:10.619Z,19.00
2023-01-13T02:07:39.830Z,13.90
2023-01-13T02:10:08.835Z,21.95
2023-01-13T02:12:36.404Z,14.85
2023-01-13T02:15:15.480Z,19.17
2023-01-13T02:17:51.020Z,16.13
2023-01-13T02:20:48.533Z,13.38
2023-01-13T02:23:36.982Z,20.17
2023-01-13T02:26:39.764Z,19.02
2023-01-13T02:29:24.925Z,17.48
2023-01-13T02:31:55.209Z,16.13
2023-01-13T02:34:34.274Z,15.70
2023-01-13T02:37:10.146Z,24.38
2023-01-13T02:39:44.900Z,23.20
2023-01-13T02:42:28.862Z,17.98
2023-01-13T02:45:11.808Z,15.90
2023-01-13T02:47:40.139Z,15.63
2023-01-13T02:50:15.117Z,17.10
2023-01-13T02:52:46.295Z,22.00
2023-01-13T02:55:17.375Z,27.02
2023-01-13T02:57:45.119Z,23.42
2023-01-13T03:00:12.967Z,21.33
2023-01-13T03:02:39.840Z,23.17
2023-01-13T03:05:06.526Z,29.08
2023-01-13T03:07:57.500Z,19.13
2023-01-13T03:10:38.579Z,16.10
2023-01-13T03:13:42.084Z,20.67
2023-01-13T03:16:34.553Z,19.10
2023-01-13T03:19:22.849Z,17.42
2023-01-13T03:22:08.254Z,20.85
2023-01-13T03:24:39.258Z,20.45
2023-01-13T03:27:08.310Z,17.83
2023-01-13T03:29:40.915Z,17.00
2023-01-13T03:32:16.224Z,21.33
2023-01-13T03:34:50.335Z,21.02
2023-01-13T03:37:21.151Z,19.58
2023-01-13T03:39:52.861Z,24.10
2023-01-13T03:42:25.991Z,23.20
2023-01-13T03:44:58.978Z,15.75
2023-01-13T03:47:29.364Z,16.98
2023-01-13T03:50:20.543Z,15.45
2023-01-13T03:52:53.095Z,15.77
2023-01-13T03:55:26.745Z,21.88
2023-01-13T03:58:09.790Z,17.17
2023-01-13T04:01:03.654Z,22.77
2023-01-13T04:03:48.799Z,17.65
2023-01-13T04:06:33.994Z,16.95
2023-01-13T04:09:18.760Z,16.58
2023-01-13T04:11:55.224Z,19.95
2023-01-13T04:14:25.612Z,11.48
2023-01-13T04:16:51.980Z,17.42
2023-01-13T04:19:18.383Z,20.15
2023-01-13T04:21:44.878Z,19.48
2023-01-13T04:24:11.319Z,15.43
2023-01-13T04:26:37.741Z,13.93
2023-01-13T04:29:04.117Z,19.08
2023-01-13T04:31:30.448Z,17.85
2023-01-13T04:33:56.763Z,15.18
2023-01-13T04:38:50.295Z,17.90
2023-01-13T04:41:16.643Z,19.83
2023-01-13T04:43:42.966Z,15.75
2023-01-13T04:46:09.368Z,17.63
2023-01-13T04:48:35.732Z,19.25
2023-01-13T04:51:02.097Z,10.38
2023-01-13T04:53:28.644Z,18.55
2023-01-13T04:55:54.994Z,13.70
2023-01-13T04:58:21.389Z,17.48
2023-01-13T05:00:47.793Z,15.90
2023-01-13T05:03:14.204Z,13.65
2023-01-13T05:05:40.581Z,15.75
2023-01-13T05:08:06.979Z,12.80
2023-01-13T05:10:33.299Z,12.23
2023-01-13T05:12:59.714Z,10.60
2023-01-13T05:15:26.118Z,9.75
2023-01-13T05:17:52.537Z,9.75
2023-01-13T05:20:19.131Z,8.32
2023-01-13T05:22:45.450Z,8.68
2023-01-13T05:25:12.485Z,11.95
2023-01-13T05:27:38.875Z,8.52
2023-01-13T05:30:06.267Z,11.35
2023-01-13T05:32:32.595Z,7.47
2023-01-13T05:34:59.229Z,9.60
2023-01-13T05:37:26.073Z,11.77
2023-01-13T05:39:52.429Z,8.30
2023-01-13T05:42:18.789Z,8.02
2023-01-13T05:44:45.125Z,10.70
2023-01-13T05:47:11.490Z,9.35
2023-01-13T05:49:37.964Z,8.82
2023-01-13T05:52:04.451Z,7.93
2023-01-13T05:54:30.804Z,8.00
2023-01-13T05:56:57.116Z,13.85
2023-01-13T06:01:49.691Z,11.23
2023-01-13T06:04:16.137Z,5.90
2023-01-13T06:06:42.455Z,13.48
2023-01-13T06:11:35.035Z,11.73
2023-01-13T06:14:01.434Z,12.20
2023-01-13T06:16:27.877Z,10.98
2023-01-13T06:18:54.316Z,11.10
2023-01-13T06:21:20.723Z,10.60
2023-01-13T06:23:47.108Z,12.90
2023-01-13T06:26:20.318Z,17.75
2023-01-13T06:28:46.732Z,13.65
2023-01-13T06:31:13.241Z,13.07
2023-01-13T06:33:45.713Z,10.00
2023-01-13T06:36:18.905Z,10.65
2023-01-13T06:38:49.787Z,16.15
2023-01-13T06:41:16.976Z,10.65
2023-01-13T06:43:43.440Z,10.35
2023-01-13T06:46:09.794Z,12.05
2023-01-13T06:48:36.146Z,11.40
2023-01-13T06:51:03.831Z,15.98
2023-01-13T06:53:30.241Z,11.25
2023-01-13T06:55:56.607Z,13.63
2023-01-13T06:58:22.986Z,10.27
2023-01-13T07:00:49.384Z,10.90
2023-01-13T07:03:18.128Z,9.20
2023-01-13T07:05:52.031Z,12.45
2023-01-13T07:08:18.412Z,8.95
2023-01-13T07:10:44.800Z,9.35
2023-01-13T07:13:11.185Z,8.45
2023-01-13T07:15:37.714Z,7.32
2023-01-13T07:18:04.115Z,16.38
2023-01-13T07:20:30.623Z,13.30
2023-01-13T07:22:58.265Z,11.68
2023-01-13T07:25:24.917Z,8.45
2023-01-13T07:27:51.350Z,9.65
2023-01-13T07:30:18.072Z,11.50
2023-01-13T07:32:44.598Z,13.52
2023-01-13T07:35:11.134Z,10.02
2023-01-13T07:37:37.928Z,10.57
2023-01-13T07:40:05.216Z,14.60
2023-01-13T07:42:31.580Z,15.95
2023-01-13T07:44:58.040Z,16.95
2023-01-13T07:47:24.470Z,15.38
2023-01-13T07:49:51.028Z,9.75
2023-01-13T07:52:17.396Z,8.32
2023-01-13T07:54:43.708Z,8.80
2023-01-13T07:57:10.184Z,12.30
2023-01-13T07:59:36.557Z,14.25
2023-01-13T08:02:03.226Z,9.63
2023-01-13T08:04:29.737Z,15.98
2023-01-13T08:06:56.266Z,12.55
2023-01-13T08:09:22.576Z,10.38
2023-01-13T08:11:48.972Z,17.63
2023-01-13T08:14:15.402Z,11.75
2023-01-13T08:16:41.882Z,14.50
2023-01-13T08:19:08.261Z,10.32
2023-01-13T08:21:34.581Z,12.63
2023-01-13T08:24:00.903Z,11.77
2023-01-13T08:26:27.265Z,13.45
2023-01-13T08:28:53.798Z,9.20
2023-01-13T08:31:20.368Z,17.88
2023-01-13T08:33:46.817Z,11.30
2023-01-13T08:36:13.403Z,12.40
2023-01-13T08:38:40.656Z,8.32
2023-01-13T08:41:15.602Z,9.00
2023-01-13T08:43:42.163Z,9.93
2023-01-13T08:46:08.785Z,17.50
2023-01-13T08:48:35.297Z,15.13
2023-01-13T08:51:06.494Z,13.95
2023-01-13T08:53:32.921Z,17.02
2023-01-13T08:55:59.336Z,17.75
2023-01-13T08:58:25.729Z,14.18
2023-01-13T09:00:52.203Z,13.38
2023-01-13T09:03:18.628Z,13.30
2023-01-13T09:05:44.979Z,14.07
2023-01-13T09:08:11.337Z,17.42
2023-01-13T09:10:37.739Z,14.55
2023-01-13T09:13:04.056Z,22.35
2023-01-13T09:15:30.447Z,18.08
2023-01-13T09:17:56.902Z,14.80
2023-01-13T09:20:23.325Z,15.52
2023-01-13T09:22:49.706Z,12.00
2023-01-13T09:25:16.124Z,14.85
2023-01-13T09:27:42.462Z,16.35
2023-01-13T09:30:09.550Z,14.55
2023-01-13T09:32:36.078Z,17.08
2023-01-13T09:35:02.444Z,13.85
2023-01-13T09:37:33.042Z,13.90
2023-01-13T09:40:00.203Z,18.15
2023-01-13T09:42:38.109Z,14.85
2023-01-13T09:45:14.380Z,17.08
2023-01-13T09:47:57.160Z,13.07
2023-01-13T09:50:57.707Z,18.13
2023-01-13T09:53:39.384Z,17.88
2023-01-13T09:56:06.370Z,14.40
2023-01-13T09:58:33.160Z,16.80
2023-01-13T10:01:37.033Z,14.80
2023-01-13T10:04:10.207Z,11.13
2023-01-13T10:06:39.533Z,13.77
2023-01-13T10:09:06.321Z,15.00
2023-01-13T10:11:39.432Z,15.65
2023-01-13T10:14:37.996Z,13.15
2023-01-13T10:17:21.075Z,11.80
2023-01-13T10:19:59.725Z,13.63
2023-01-13T10:22:41.425Z,14.75
2023-01-13T10:25:38.713Z,15.75
2023-01-13T10:28:14.033Z,19.40
2023-01-13T10:30:42.934Z,21.83
2023-01-13T10:33:18.404Z,15.73
2023-01-13T10:36:01.292Z,15.90
2023-01-13T10:38:30.324Z,13.80
2023-01-13T10:41:02.429Z,14.45
2023-01-13T10:43:29.767Z,12.98
2023-01-13T10:46:06.569Z,16.58
2023-01-13T10:48:38.959Z,15.88
2023-01-13T10:51:31.060Z,12.68
2023-01-13T10:53:57.396Z,12.85
2023-01-13T10:56:27.200Z,11.48
2023-01-13T10:59:20.595Z,16.13
2023-01-13T11:02:04.052Z,18.30
2023-01-13T11:04:43.774Z,16.30
2023-01-13T11:07:39.840Z,13.10
2023-01-13T11:10:09.040Z,12.40
2023-01-13T11:12:58.297Z,18.08
2023-01-13T11:15:38.360Z,16.63
2023-01-13T11:18:35.154Z,13.05
2023-01-13T11:21:06.776Z,11.13
2023-01-13T11:23:39.455Z,16.98
2023-01-13T11:26:31.768Z,12.85
2023-01-13T11:29:10.388Z,13.57
2023-01-13T11:31:42.723Z,11.13
2023-01-13T11:34:29.739Z,16.63
2023-01-13T11:36:59.035Z,17.27
2023-01-13T11:39:48.826Z,17.17
2023-01-13T11:42:43.273Z,16.20
2023-01-13T11:45:21.350Z,16.70
2023-01-13T11:47:55.038Z,13.18
2023-01-13T11:50:34.286Z,14.55
2023-01-13T11:53:00.550Z,15.55
2023-01-13T11:55:55.799Z,10.73
2023-01-13T11:59:11.838Z,14.45
2023-01-13T12:01:47.724Z,13.23
2023-01-13T12:04:23.367Z,12.63
2023-01-13T12:07:06.004Z,19.08
2023-01-13T12:09:42.295Z,11.88
2023-01-13T12:12:39.244Z,12.20
2023-01-13T12:15:31.905Z,9.55
2023-01-13T12:18:03.511Z,13.98
2023-01-13T12:20:43.803Z,14.55
2023-01-13T12:23:41.203Z,9.10
2023-01-13T12:26:12.308Z,10.48
2023-01-13T12:29:01.537Z,10.15
2023-01-13T12:31:28.984Z,13.00
2023-01-13T12:34:26.406Z,8.00
2023-01-13T12:36:58.702Z,11.65
2023-01-13T12:42:10.474Z,8.30
2023-01-13T12:44:36.930Z,9.30
2023-01-13T12:47:03.412Z,11.98
2023-01-13T12:49:33.065Z,10.90
2023-01-13T12:52:04.632Z,11.23
2023-01-13T12:54:30.986Z,7.03
2023-01-13T12:56:58.169Z,11.77
2023-01-13T12:59:24.493Z,7.55
2023-01-13T13:02:09.037Z,11.82
2023-01-13T13:04:47.839Z,8.27
2023-01-13T13:07:22.393Z,15.52
2023-01-13T13:09:57.940Z,11.02
2023-01-13T13:12:30.111Z,9.73
2023-01-13T13:14:57.606Z,6.95
2023-01-13T13:17:29.780Z,10.55
2023-01-13T13:19:57.721Z,8.10
2023-01-13T13:22:26.921Z,6.88
2023-01-13T13:24:56.270Z,11.20
2023-01-13T13:27:46.843Z,10.80
2023-01-13T13:30:39.249Z,6.65
2023-01-13T13:33:20.860Z,11.63
2023-01-13T13:36:28.608Z,7.68
2023-01-13T13:39:10.345Z,9.07
2023-01-13T13:41:44.277Z,6.13
2023-01-13T13:44:20.370Z,13.18
2023-01-13T13:46:48.940Z,10.55
2023-01-13T13:49:18.231Z,10.13
2023-01-13T13:52:02.534Z,8.07
2023-01-13T13:54:29.953Z,9.38
2023-01-13T13:56:56.372Z,5.60
2023-01-13T13:59:26.586Z,6.85
2023-01-13T14:01:56.844Z,5.65
2023-01-13T14:04:24.701Z,9.25
2023-01-13T14:07:16.510Z,11.27
2023-01-13T14:09:46.208Z,8.00
2023-01-13T14:12:25.760Z,12.57
2023-01-13T14:14:52.216Z,5.10
2023-01-13T14:17:22.869Z,7.40
2023-01-13T14:19:55.931Z,5.82
2023-01-13T14:22:22.502Z,10.35
2023-01-13T14:24:49.511Z,10.77
2023-01-13T14:27:18.575Z,7.53
2023-01-13T14:29:45.429Z,11.60
2023-01-13T14:32:19.236Z,5.88
2023-01-13T14:34:46.019Z,7.93
2023-01-13T14:37:39.628Z,10.02
2023-01-13T14:40:06.859Z,11.23
2023-01-13T14:42:33.273Z,9.68
2023-01-13T14:44:59.783Z,10.13
2023-01-13T14:47:28.635Z,9.90
2023-01-13T14:50:06.232Z,9.38
2023-01-13T14:52:36.138Z,11.02
2023-01-13T14:55:05.511Z,6.47
2023-01-13T14:57:33.524Z,10.73
2023-01-13T15:00:02.980Z,8.50
2023-01-13T15:02:29.384Z,9.60
2023-01-13T15:04:57.614Z,12.63
2023-01-13T15:07:28.945Z,12.70
2023-01-13T15:09:58.783Z,10.75
2023-01-13T15:12:34.668Z,7.18
2023-01-13T15:15:06.422Z,6.72
2023-01-13T15:17:33.953Z,7.20
2023-01-13T15:20:00.279Z,10.30
2023-01-13T15:22:26.620Z,8.73
2023-01-13T15:24:53.022Z,9.85
2023-01-13T15:27:25.312Z,7.43
2023-01-13T15:32:20.792Z,8.32
2023-01-13T15:34:47.915Z,11.65
2023-01-13T15:37:17.085Z,10.68
2023-01-13T15:39:43.388Z,11.32
2023-01-13T15:42:14.548Z,10.00
2023-01-13T15:44:40.954Z,8.93
2023-01-13T15:47:09.869Z,10.93
2023-01-13T15:49:42.031Z,9.48
2023-01-13T15:52:22.820Z,8.70
2023-01-13T15:54:50.865Z,9.10
2023-01-13T15:57:24.883Z,9.73
2023-01-13T15:59:54.750Z,10.25
2023-01-13T16:02:21.409Z,8.45
2023-01-13T16:04:48.154Z,10.02
2023-01-13T16:07:18.701Z,12.27
2023-01-13T16:09:45.524Z,9.15
2023-01-13T16:12:12.699Z,11.52
2023-01-13T16:14:39.488Z,9.77
2023-01-13T16:17:20.897Z,6.63
2023-01-13T16:19:47.305Z,8.68
2023-01-13T16:22:14.919Z,8.40
2023-01-13T16:24:41.770Z,5.43
2023-01-13T16:27:22.254Z,10.75
2023-01-13T16:29:50.090Z,12.27
2023-01-13T16:32:17.238Z,11.30
2023-01-13T16:34:44.434Z,10.77
2023-01-13T16:37:27.215Z,7.82
2023-01-13T16:39:54.419Z,10.10
2023-01-13T16:42:21.179Z,12.32
2023-01-13T16:44:47.564Z,11.57
2023-01-13T16:47:15.408Z,8.85
2023-01-13T16:49:41.945Z,8.30
2023-01-13T16:52:08.366Z,11.35
2023-01-13T16:54:35.007Z,8.90
2023-01-13T16:57:01.971Z,7.38
2023-01-13T16:59:28.541Z,8.43
2023-01-13T17:01:55.004Z,10.27
2023-01-13T17:04:22.410Z,8.90
2023-01-13T17:07:02.871Z,7.35
2023-01-13T17:09:29.773Z,8.05
2023-01-13T17:11:56.996Z,8.63
2023-01-13T17:14:24.428Z,13.63
2023-01-13T17:16:53.429Z,11.82
2023-01-13T17:19:22.023Z,10.77
2023-01-13T17:21:48.808Z,9.30
2023-01-13T17:24:15.325Z,6.75
2023-01-13T17:26:44.650Z,8.82
2023-01-13T17:29:24.433Z,9.63
2023-01-13T17:31:51.452Z,9.48
2023-01-13T17:34:19.475Z,7.97
2023-01-13T17:36:45.811Z,9.05
2023-01-13T17:39:17.445Z,9.57
2023-01-13T17:41:44.807Z,12.52
2023-01-13T17:44:15.877Z,6.35
2023-01-13T17:46:43.082Z,8.45
2023-01-13T17:49:17.328Z,6.63
2023-01-13T17:51:44.427Z,8.18
2023-01-13T17:54:10.773Z,8.60
2023-01-13T17:56:37.851Z,5.68
2023-01-13T17:59:05.114Z,10.75
2023-01-13T18:01:31.642Z,10.98
2023-01-13T18:03:58.655Z,4.60
2023-01-13T18:06:25.703Z,8.02
2023-01-13T18:08:53.044Z,8.00
2023-01-13T18:11:21.240Z,13.95
2023-01-13T18:13:52.284Z,9.40
2023-01-13T18:16:19.834Z,4.68
2023-01-13T18:18:49.030Z,6.38
2023-01-13T18:21:26.446Z,12.50
2023-01-13T18:23:52.875Z,8.00
2023-01-13T18:26:20.123Z,8.30
2023-01-13T18:28:46.460Z,7.55
2023-01-13T18:31:12.929Z,3.40
2023-01-13T18:33:39.301Z,4.78
2023-01-13T18:36:07.314Z,6.80
2023-01-13T18:38:33.746Z,9.35
2023-01-13T18:41:00.179Z,6.45
2023-01-13T18:43:26.539Z,6.90
2023-01-13T18:45:53.140Z,9.25
2023-01-13T18:48:19.549Z,8.35
2023-01-13T18:50:45.928Z,8.57
2023-01-13T18:53:12.287Z,6.68
2023-01-13T18:55:38.843Z,4.93
2023-01-13T18:58:05.393Z,6.18
2023-01-13T19:00:31.772Z,6.30
2023-01-13T19:05:32.557Z,6.57
2023-01-13T19:07:58.964Z,7.47
2023-01-13T19:10:25.306Z,4.20
2023-01-13T19:12:51.627Z,7.13
2023-01-13T19:17:44.573Z,5.45
2023-01-13T19:20:11.493Z,8.38
2023-01-13T19:22:37.896Z,8.75
2023-01-13T19:25:04.852Z,6.43
2023-01-13T19:27:31.478Z,5.72
2023-01-13T19:29:57.907Z,7.78
2023-01-13T19:32:24.485Z,8.85
2023-01-13T19:34:51.075Z,5.70
2023-01-13T19:37:18.006Z,10.52
2023-01-13T19:39:44.619Z,8.60
2023-01-13T19:42:13.371Z,7.53
2023-01-13T19:44:39.828Z,12.23
2023-01-13T19:47:06.183Z,6.70
2023-01-13T19:49:33.029Z,7.45
2023-01-13T19:51:59.387Z,8.52
2023-01-13T19:54:25.762Z,6.32
2023-01-13T19:56:52.423Z,5.07
2023-01-13T19:59:18.831Z,7.68
2023-01-13T20:01:45.212Z,6.78
2023-01-13T20:04:11.616Z,10.73
2023-01-13T20:06:37.973Z,7.22
2023-01-13T20:09:04.347Z,11.43
2023-01-13T20:11:30.742Z,8.27
2023-01-13T20:14:00.970Z,7.65
2023-01-13T20:16:29.366Z,6.88
2023-01-13T20:18:56.458Z,8.68
2023-01-13T20:21:23.136Z,9.13
2023-01-13T20:23:51.225Z,8.27
2023-01-13T20:26:18.377Z,8.50
2023-01-13T20:28:46.350Z,8.23
2023-01-13T20:31:14.014Z,7.13
2023-01-13T20:33:40.559Z,9.40
2023-01-13T20:36:08.318Z,6.53
2023-01-13T20:38:34.675Z,7.30
2023-01-13T20:41:01.796Z,7.50
2023-01-13T20:43:28.208Z,4.82
2023-01-13T20:45:54.550Z,8.27
2023-01-13T20:50:52.625Z,7.00
2023-01-13T20:53:18.992Z,8.25
2023-01-13T20:55:45.606Z,3.70
2023-01-13T20:58:12.004Z,7.72
2023-01-13T21:00:38.447Z,5.00
2023-01-13T21:03:04.846Z,9.82
2023-01-13T21:05:31.299Z,6.20
2023-01-13T21:07:57.717Z,6.95
2023-01-13T21:10:24.101Z,7.47
2023-01-13T21:12:50.436Z,7.35
2023-01-13T21:15:16.827Z,7.25
2023-01-13T21:17:44.886Z,7.22
2023-01-13T21:20:13.813Z,11.10
2023-01-13T21:22:44.534Z,4.95
2023-01-13T21:25:11.091Z,8.23
2023-01-13T21:27:37.619Z,6.65
2023-01-13T21:30:04.955Z,7.45
2023-01-13T21:32:31.427Z,8.80
2023-01-13T21:34:57.791Z,9.77
2023-01-13T21:37:24.666Z,8.48
2023-01-13T21:39:51.075Z,8.55
2023-01-13T21:42:17.685Z,9.10
2023-01-13T21:44:44.070Z,7.60
2023-01-13T21:47:18.619Z,9.15
2023-01-13T21:49:44.986Z,12.82
2023-01-13T21:52:12.902Z,7.47
2023-01-13T21:54:39.681Z,7.43
2023-01-13T21:57:06.070Z,7.80
2023-01-13T21:59:32.572Z,6.00
2023-01-13T22:02:04.792Z,5.28
2023-01-13T22:04:45.331Z,16.00
2023-01-13T22:07:11.788Z,13.30
2023-01-13T22:09:38.104Z,9.10
2023-01-13T22:12:04.922Z,7.88
2023-01-13T22:14:31.724Z,7.20
2023-01-13T22:16:58.089Z,6.53
2023-01-13T22:19:24.525Z,10.00
2023-01-13T22:21:50.882Z,11.93
2023-01-13T22:24:17.229Z,9.65
2023-01-13T22:29:09.802Z,9.10
2023-01-13T22:34:02.783Z,8.88
2023-01-13T22:36:29.189Z,9.95
2023-01-13T22:38:55.995Z,7.70
2023-01-13T22:41:22.885Z,10.27
2023-01-13T22:43:49.370Z,11.75
2023-01-13T22:46:15.897Z,9.00
2023-01-13T22:48:42.267Z,12.27
2023-01-13T22:53:39.651Z,8.27
2023-01-13T22:56:06.826Z,6.03
2023-01-13T22:58:33.581Z,9.18
2023-01-13T23:01:17.463Z,7.05
2023-01-13T23:03:44.411Z,11.63
2023-01-13T23:06:10.951Z,5.40
2023-01-13T23:08:37.366Z,11.73
2023-01-13T23:11:06.619Z,12.18
2023-01-13T23:13:33.495Z,9.95
2023-01-13T23:16:07.324Z,8.25
2023-01-13T23:18:34.179Z,10.70
2023-01-13T23:21:11.329Z,15.65
2023-01-13T23:23:38.492Z,6.55
2023-01-13T23:26:06.828Z,8.25
2023-01-13T23:28:34.376Z,8.70
2023-01-13T23:31:00.849Z,10.32
2023-01-13T23:33:27.463Z,8.73
2023-01-13T23:35:58.550Z,9.73
2023-01-13T23:38:25.188Z,6.88
2023-01-13T23:40:51.548Z,12.88
2023-01-13T23:43:18.058Z,8.48
2023-01-13T23:45:44.528Z,8.65
2023-01-13T23:48:11.119Z,6.50
2023-01-13T23:50:37.526Z,6.40
2023-01-13T23:53:03.892Z,9.73
2023-01-13T23:55:30.231Z,9.45
2023-01-13T23:57:56.590Z,8.65
